createdAt,value
2019-04-22T00:02:08.923Z,90.90
2019-04-22T00:04:49.690Z,91.60
2019-04-22T00:07:28.638Z,91.90
2019-04-22T00:10:06.331Z,93.00
2019-04-22T00:12:37.230Z,94.60
2019-04-22T00:14:59.660Z,94.80
2019-04-22T00:17:48.567Z,95.70
2019-04-22T00:20:10.165Z,96.10
2019-04-22T00:22:42.717Z,97.00
2019-04-22T00:25:14.438Z,97.40
2019-04-22T00:27:50.637Z,99.30
2019-04-22T00:30:19.365Z,99.90
2019-04-22T00:32:49.989Z,99.90
2019-04-22T00:35:18.168Z,99.90
2019-04-22T00:37:56.990Z,99.90
2019-04-22T00:40:32.299Z,99.90
2019-04-22T00:45:31.140Z,99.90
2019-04-22T00:48:02.483Z,99.90
2019-04-22T00:50:30.516Z,99.90
2019-04-22T00:53:04.002Z,99.90
2019-04-22T00:55:32.709Z,99.90
2019-04-22T00:58:08.312Z,99.90
2019-04-22T01:00:44.364Z,99.90
2019-04-22T01:03:22.858Z,99.90
2019-04-22T01:05:43.326Z,99.90
2019-04-22T01:08:15.222Z,99.90
2019-04-22T01:10:45.433Z,99.90
2019-04-22T01:13:23.135Z,99.90
2019-04-22T01:15:47.598Z,99.90
2019-04-22T01:18:15.739Z,99.90
2019-04-22T01:21:13.648Z,99.90
2019-04-22T01:23:19.191Z,99.90
2019-04-22T01:25:44.857Z,99.90
2019-04-22T01:28:15.659Z,99.90
2019-04-22T01:30:45.124Z,99.90
2019-04-22T01:33:15.085Z,99.90
2019-04-22T01:35:50.691Z,99.90
2019-04-22T01:38:23.565Z,99.90
2019-04-22T01:41:08.332Z,99.90
2019-04-22T01:43:40.979Z,99.90
2019-04-22T01:46:12.674Z,99.90
2019-04-22T01:48:39.554Z,99.90
2019-04-22T01:51:07.876Z,99.90
2019-04-22T01:53:42.777Z,99.90
2019-04-22T01:56:13.627Z,99.90
2019-04-22T01:58:42.207Z,99.90
2019-04-22T02:01:16.018Z,99.90
2019-04-22T02:03:46.718Z,99.90
2019-04-22T02:06:23.372Z,99.90
2019-04-22T02:08:54.961Z,99.90
2019-04-22T02:11:26.435Z,99.90
2019-04-22T02:13:49.373Z,99.90
2019-04-22T02:16:19.714Z,99.90
2019-04-22T02:18:58.437Z,99.90
2019-04-22T02:21:20.438Z,99.90
2019-04-22T02:24:00.395Z,99.90
2019-04-22T02:26:31.323Z,99.90
2019-04-22T02:28:53.730Z,99.90
2019-04-22T02:36:36.393Z,99.90
2019-04-22T02:39:17.481Z,99.90
2019-04-22T02:51:40.803Z,99.90
2019-04-22T02:54:29.879Z,99.90
2019-04-22T02:59:14.397Z,99.90
2019-04-22T03:04:18.819Z,99.90
2019-04-22T03:06:55.962Z,99.90
2019-04-22T03:09:23.553Z,99.90
2019-04-22T03:12:04.428Z,99.90
2019-04-22T03:14:22.287Z,99.90
2019-04-22T03:16:50.454Z,99.90
2019-04-22T03:22:00.420Z,99.90
2019-04-22T03:27:16.880Z,99.90
2019-04-22T03:30:36.731Z,99.90
2019-04-22T03:32:59.391Z,99.90
2019-04-22T03:37:45.570Z,99.90
2019-04-22T03:42:49.552Z,99.90
2019-04-22T03:45:19.762Z,99.90
2019-04-22T03:47:48.034Z,99.90
2019-04-22T03:50:22.061Z,99.90
2019-04-22T03:52:47.074Z,99.90
2019-04-22T03:55:16.081Z,99.90
2019-04-22T03:57:50.366Z,99.90
2019-04-22T04:00:24.986Z,99.90
2019-04-22T04:05:50.460Z,99.90
2019-04-22T04:10:37.486Z,99.90
2019-04-22T04:20:41.657Z,99.90
2019-04-22T04:25:50.328Z,99.90
2019-04-22T04:30:48.693Z,99.90
2019-04-22T04:33:18.500Z,99.90
2019-04-22T04:38:15.036Z,99.90
2019-04-22T04:43:18.381Z,99.90
2019-04-22T04:45:57.245Z,99.90
2019-04-22T04:48:32.639Z,99.90
2019-04-22T04:51:11.293Z,99.90
2019-04-22T04:56:06.467Z,99.90
2019-04-22T04:58:55.820Z,99.90
2019-04-22T05:01:11.025Z,99.90
2019-04-22T05:06:10.676Z,99.90
2019-04-22T05:08:52.546Z,99.90
2019-04-22T05:11:05.780Z,99.90
2019-04-22T05:14:28.773Z,99.90
2019-04-22T05:16:27.073Z,99.90
2019-04-22T05:18:44.693Z,99.90
2019-04-22T05:23:45.367Z,99.90
2019-04-22T05:26:10.810Z,99.90
2019-04-22T05:28:35.413Z,99.90
2019-04-22T05:31:15.694Z,99.90
2019-04-22T05:33:41.155Z,99.90
2019-04-22T05:36:18.622Z,99.90
2019-04-22T05:38:49.441Z,99.90
2019-04-22T05:41:17.734Z,99.90
2019-04-22T05:43:50.175Z,99.90
2019-04-22T05:46:15.733Z,99.90
2019-04-22T05:48:56.641Z,99.90
2019-04-22T05:51:25.937Z,99.90
2019-04-22T05:53:53.903Z,99.90
2019-04-22T05:56:34.255Z,99.90
2019-04-22T06:04:05.470Z,99.90
2019-04-22T06:06:34.065Z,99.90
2019-04-22T06:09:07.187Z,99.90
2019-04-22T06:11:54.476Z,99.90
2019-04-22T06:14:12.382Z,99.90
2019-04-22T06:16:44.322Z,99.90
2019-04-22T06:22:06.862Z,99.90
2019-04-22T06:24:23.534Z,99.90
2019-04-22T06:27:01.533Z,99.90
2019-04-22T06:32:23.230Z,99.90
2019-04-22T06:34:33.225Z,99.90
2019-04-22T06:36:59.699Z,99.90
2019-04-22T06:39:38.258Z,99.90
2019-04-22T06:42:01.026Z,99.90
2019-04-22T06:44:29.871Z,99.90
2019-04-22T06:46:56.376Z,99.90
2019-04-22T06:49:35.871Z,99.90
2019-04-22T06:52:07.747Z,99.30
2019-04-22T06:54:32.545Z,98.00
2019-04-22T06:57:06.158Z,96.30
2019-04-22T06:59:36.290Z,95.20
2019-04-22T07:02:14.914Z,93.40
2019-04-22T07:04:41.890Z,91.80
2019-04-22T07:07:14.163Z,89.70
2019-04-22T07:12:20.053Z,87.60
2019-04-22T07:14:46.756Z,87.30
2019-04-22T07:17:15.613Z,81.80
2019-04-22T07:19:42.220Z,78.30
2019-04-22T07:24:53.854Z,72.40
2019-04-22T07:27:22.180Z,70.00
2019-04-22T07:32:40.112Z,67.40
2019-04-22T07:35:08.648Z,65.10
2019-04-22T07:37:40.539Z,62.90
2019-04-22T07:39:56.968Z,61.90
2019-04-22T07:42:32.737Z,58.60
2019-04-22T07:45:08.482Z,58.10
2019-04-22T07:50:05.469Z,54.80
2019-04-22T07:52:52.057Z,54.20
2019-04-22T07:55:05.623Z,52.30
2019-04-22T07:57:36.847Z,49.60
2019-04-22T08:00:16.082Z,48.70
2019-04-22T08:02:51.671Z,48.90
2019-04-22T08:05:12.529Z,48.40
2019-04-22T08:07:46.459Z,48.50
2019-04-22T08:10:24.335Z,48.70
2019-04-22T08:12:55.447Z,48.00
2019-04-22T08:15:20.105Z,48.20
2019-04-22T08:20:30.714Z,47.00
2019-04-22T08:23:04.817Z,46.50
2019-04-22T08:25:36.625Z,46.60
2019-04-22T08:28:08.294Z,45.50
2019-04-22T08:33:13.797Z,45.90
2019-04-22T08:35:52.537Z,45.80
2019-04-22T08:38:28.157Z,45.50
2019-04-22T08:40:50.514Z,45.80
2019-04-22T08:43:20.290Z,46.10
2019-04-22T08:45:51.060Z,46.30
2019-04-22T08:48:16.360Z,46.50
2019-04-22T08:50:44.579Z,46.60
2019-04-22T08:53:19.950Z,45.90
2019-04-22T08:55:59.513Z,45.30
2019-04-22T08:58:33.855Z,45.20
2019-04-22T09:03:18.747Z,44.40
2019-04-22T09:06:11.316Z,44.50
2019-04-22T09:08:32.484Z,44.80
2019-04-22T09:10:59.931Z,44.80
2019-04-22T09:13:31.284Z,44.20
2019-04-22T09:15:59.035Z,44.00
2019-04-22T09:23:38.482Z,41.60
2019-04-22T09:26:03.836Z,42.60
2019-04-22T09:28:38.062Z,41.80
2019-04-22T09:31:06.095Z,42.40
2019-04-22T09:33:38.167Z,43.10
2019-04-22T09:36:16.742Z,42.30
2019-04-22T09:41:13.397Z,42.30
2019-04-22T09:43:48.830Z,41.90
2019-04-22T09:46:19.721Z,41.50
2019-04-22T09:48:44.171Z,41.80
2019-04-22T09:51:11.619Z,41.30
2019-04-22T09:53:52.648Z,41.20
2019-04-22T09:56:20.852Z,41.00
2019-04-22T09:58:53.520Z,41.40
2019-04-22T10:01:22.595Z,41.60
2019-04-22T10:03:56.491Z,42.30
2019-04-22T10:08:53.024Z,41.20
2019-04-22T10:11:26.918Z,40.90
2019-04-22T10:13:54.185Z,41.50
2019-04-22T10:16:26.871Z,41.50
2019-04-22T10:18:52.382Z,40.20
2019-04-22T10:21:26.833Z,39.90
2019-04-22T10:23:51.936Z,40.10
2019-04-22T10:26:28.024Z,41.40
2019-04-22T10:31:34.925Z,41.70
2019-04-22T10:33:46.538Z,41.10
2019-04-22T10:36:01.398Z,39.80
2019-04-22T10:38:30.631Z,39.60
2019-04-22T10:41:00.708Z,40.00
2019-04-22T10:43:30.105Z,41.10
2019-04-22T10:45:59.903Z,41.20
2019-04-22T10:48:30.187Z,40.30
2019-04-22T10:50:59.188Z,39.80
2019-04-22T10:53:29.215Z,40.00
2019-04-22T10:55:58.861Z,39.60
2019-04-22T10:58:28.842Z,40.30
2019-04-22T11:00:58.181Z,41.20
2019-04-22T11:03:28.416Z,41.40
2019-04-22T11:05:59.094Z,40.20
2019-04-22T11:08:37.958Z,39.20
2019-04-22T11:11:11.512Z,40.20
2019-04-22T11:13:28.759Z,40.70
2019-04-22T11:15:58.382Z,40.90
2019-04-22T11:18:27.494Z,39.20
2019-04-22T11:20:57.753Z,39.40
2019-04-22T11:23:27.090Z,39.80
2019-04-22T11:25:57.530Z,40.10
2019-04-22T11:28:27.744Z,38.90
2019-04-22T11:30:56.666Z,39.20
2019-04-22T11:33:26.966Z,38.70
2019-04-22T11:35:55.708Z,37.70
2019-04-22T11:38:24.699Z,37.80
2019-04-22T11:40:55.846Z,38.10
2019-04-22T11:43:24.238Z,37.20
2019-04-22T11:45:53.354Z,37.80
2019-04-22T11:48:23.515Z,37.60
2019-04-22T11:50:53.726Z,37.70
2019-04-22T11:53:22.758Z,37.00
2019-04-22T11:55:53.164Z,36.50
2019-04-22T11:58:21.892Z,36.50
2019-04-22T12:00:51.934Z,36.80
2019-04-22T12:03:21.112Z,36.40
2019-04-22T12:05:52.208Z,36.10
2019-04-22T12:08:21.274Z,35.60
2019-04-22T12:10:54.852Z,35.70
2019-04-22T12:13:21.856Z,36.30
2019-04-22T12:15:51.188Z,36.80
2019-04-22T12:18:22.902Z,36.80
2019-04-22T12:20:53.112Z,37.50
2019-04-22T12:23:23.129Z,36.90
2019-04-22T12:26:00.931Z,36.70
2019-04-22T12:28:23.344Z,37.00
2019-04-22T12:30:53.505Z,37.70
2019-04-22T12:33:23.456Z,37.70
2019-04-22T12:35:52.869Z,38.10
2019-04-22T12:38:23.992Z,37.50
2019-04-22T12:40:59.078Z,38.10
2019-04-22T12:43:26.442Z,37.30
2019-04-22T12:45:56.268Z,37.30
2019-04-22T12:48:27.976Z,37.00
2019-04-22T12:50:58.479Z,37.00
2019-04-22T12:53:29.758Z,38.20
2019-04-22T12:55:59.562Z,37.50
2019-04-22T12:58:29.952Z,36.80
2019-04-22T13:00:58.967Z,37.30
2019-04-22T13:03:28.592Z,37.20
2019-04-22T13:05:59.415Z,37.40
2019-04-22T13:08:29.887Z,37.50
2019-04-22T13:11:06.888Z,37.60
2019-04-22T13:13:31.489Z,37.50
2019-04-22T13:16:00.842Z,37.10
2019-04-22T13:18:39.487Z,37.00
2019-04-22T13:21:00.463Z,36.80
2019-04-22T13:23:29.849Z,37.30
2019-04-22T13:25:59.042Z,37.80
2019-04-22T13:28:29.188Z,38.10
2019-04-22T13:31:01.401Z,36.50
2019-04-22T13:33:30.659Z,36.90
2019-04-22T13:36:01.685Z,36.20
2019-04-22T13:38:31.171Z,36.40
2019-04-22T13:41:10.867Z,36.90
2019-04-22T13:43:32.384Z,37.10
2019-04-22T13:46:02.182Z,37.40
2019-04-22T13:48:52.915Z,38.00
2019-04-22T13:51:41.006Z,37.60
2019-04-22T13:54:36.481Z,37.20
2019-04-22T13:56:35.653Z,37.50
2019-04-22T13:58:52.848Z,37.80
2019-04-22T14:01:16.958Z,37.60
2019-04-22T14:04:02.687Z,37.50
2019-04-22T14:06:31.630Z,38.50
2019-04-22T14:09:01.162Z,38.40
2019-04-22T14:11:43.398Z,39.00
2019-04-22T14:14:03.189Z,39.30
2019-04-22T14:16:33.145Z,39.50
2019-04-22T14:19:03.788Z,39.30
2019-04-22T14:21:32.773Z,40.20
2019-04-22T14:24:02.726Z,40.70
2019-04-22T14:26:52.408Z,40.30
2019-04-22T14:29:08.079Z,40.20
2019-04-22T14:31:38.295Z,40.90
2019-04-22T14:34:09.638Z,40.80
2019-04-22T14:36:39.012Z,41.30
2019-04-22T14:39:10.140Z,41.50
2019-04-22T14:41:55.501Z,41.90
2019-04-22T14:49:40.648Z,42.70
2019-04-22T14:52:13.302Z,42.70
2019-04-22T14:54:31.029Z,42.80
2019-04-22T14:56:52.059Z,42.60
2019-04-22T14:59:24.923Z,42.30
2019-04-22T15:01:54.149Z,42.20
2019-04-22T15:04:23.569Z,41.50
2019-04-22T15:06:54.902Z,41.90
2019-04-22T15:09:30.089Z,42.10
2019-04-22T15:12:14.847Z,42.50
2019-04-22T15:14:35.555Z,43.30
2019-04-22T15:17:11.087Z,44.70
2019-04-22T15:19:47.725Z,44.40
2019-04-22T15:22:20.991Z,45.10
2019-04-22T15:24:54.198Z,45.90
2019-04-22T15:27:26.136Z,46.20
2019-04-22T15:29:57.047Z,46.10
2019-04-22T15:32:29.554Z,46.40
2019-04-22T15:34:59.597Z,47.00
2019-04-22T15:37:28.561Z,47.50
2019-04-22T15:39:58.567Z,47.60
2019-04-22T15:42:30.514Z,47.70
2019-04-22T15:45:00.213Z,48.30
2019-04-22T15:47:29.280Z,48.60
2019-04-22T15:49:58.430Z,48.80
2019-04-22T15:52:32.768Z,48.70
2019-04-22T15:54:58.406Z,48.80
2019-04-22T15:57:28.704Z,48.90
2019-04-22T16:00:14.437Z,49.00
2019-04-22T16:02:29.834Z,49.10
2019-04-22T16:04:58.912Z,49.00
2019-04-22T16:07:29.618Z,48.90
2019-04-22T16:09:59.656Z,48.90
2019-04-22T16:12:35.968Z,49.00
2019-04-22T16:15:02.592Z,49.10
2019-04-22T16:17:30.644Z,49.20
2019-04-22T16:19:59.586Z,49.10
2019-04-22T16:22:30.535Z,49.30
2019-04-22T16:25:19.683Z,49.20
2019-04-22T16:27:48.562Z,49.50
2019-04-22T16:30:19.162Z,49.70
2019-04-22T16:32:49.399Z,49.40
2019-04-22T16:35:18.815Z,49.20
2019-04-22T16:37:48.596Z,48.90
2019-04-22T16:40:18.717Z,49.20
2019-04-22T16:42:53.317Z,48.90
2019-04-22T16:45:18.000Z,48.60
2019-04-22T16:47:47.250Z,48.80
2019-04-22T16:50:18.180Z,49.00
2019-04-22T16:52:48.156Z,48.70
2019-04-22T16:55:17.122Z,49.00
2019-04-22T16:57:46.095Z,49.20
2019-04-22T17:00:16.607Z,49.40
2019-04-22T17:03:04.749Z,49.80
2019-04-22T17:05:35.851Z,49.70
2019-04-22T17:08:06.017Z,49.60
2019-04-22T17:10:35.591Z,49.60
2019-04-22T17:13:10.991Z,49.70
2019-04-22T17:15:35.270Z,49.70
2019-04-22T17:18:05.506Z,49.90
2019-04-22T17:20:34.403Z,50.30
2019-04-22T17:23:05.421Z,50.30
2019-04-22T17:25:36.312Z,50.60
2019-04-22T17:28:05.699Z,50.70
2019-04-22T17:30:36.013Z,50.60
2019-04-22T17:33:05.276Z,50.50
2019-04-22T17:35:35.914Z,50.60
2019-04-22T17:38:16.306Z,50.70
2019-04-22T17:40:52.205Z,50.80
2019-04-22T17:43:40.453Z,50.70
2019-04-22T17:46:00.106Z,50.70
2019-04-22T17:48:48.907Z,50.70
2019-04-22T17:51:29.937Z,50.80
2019-04-22T17:53:54.636Z,50.80
2019-04-22T17:56:21.961Z,50.80
2019-04-22T17:58:51.261Z,50.80
2019-04-22T18:01:24.985Z,50.80
2019-04-22T18:03:43.378Z,50.60
2019-04-22T18:06:17.562Z,50.60
2019-04-22T18:08:54.920Z,50.60
2019-04-22T18:11:37.790Z,49.90
2019-04-22T18:14:03.164Z,50.10
2019-04-22T18:16:30.127Z,50.10
2019-04-22T18:18:59.948Z,50.20
2019-04-22T18:21:26.430Z,50.30
2019-04-22T18:23:52.827Z,50.20
2019-04-22T18:26:32.186Z,50.20
2019-04-22T18:29:00.654Z,50.30
2019-04-22T18:31:27.133Z,50.40
2019-04-22T18:34:00.217Z,50.30
2019-04-22T18:36:35.997Z,50.20
2019-04-22T18:39:15.187Z,49.90
2019-04-22T18:41:41.295Z,50.00
2019-04-22T18:44:11.501Z,49.80
2019-04-22T18:46:44.502Z,50.10
2019-04-22T18:49:15.278Z,50.10
2019-04-22T18:51:55.980Z,50.20
2019-04-22T18:54:30.878Z,50.20
2019-04-22T18:57:02.645Z,50.40
2019-04-22T18:59:20.152Z,50.50
2019-04-22T19:01:53.632Z,50.60
2019-04-22T19:04:36.813Z,50.70
2019-04-22T19:07:17.245Z,50.80
2019-04-22T19:10:00.009Z,51.00
2019-04-22T19:14:56.715Z,52.00
2019-04-22T19:17:55.135Z,52.10
2019-04-22T19:20:31.471Z,52.30
2019-04-22T19:22:57.507Z,52.70
2019-04-22T19:25:21.296Z,52.90
2019-04-22T19:28:01.289Z,53.00
2019-04-22T19:30:36.714Z,53.90
2019-04-22T19:33:19.260Z,53.50
2019-04-22T19:35:49.088Z,53.70
2019-04-22T19:38:14.094Z,53.80
2019-04-22T19:41:08.621Z,53.70
2019-04-22T19:43:29.260Z,53.70
2019-04-22T19:46:00.450Z,53.90
2019-04-22T19:51:12.814Z,54.50
2019-04-22T19:53:42.056Z,55.00
2019-04-22T19:56:09.632Z,54.80
2019-04-22T19:58:42.668Z,55.40
2019-04-22T20:01:27.311Z,55.30
2019-04-22T20:06:39.617Z,55.70
2019-04-22T20:09:17.754Z,55.90
2019-04-22T20:11:41.757Z,56.60
2019-04-22T20:14:12.754Z,56.90
2019-04-22T20:16:37.533Z,57.60
2019-04-22T20:19:23.978Z,57.50
2019-04-22T20:21:49.978Z,57.20
2019-04-22T20:24:04.433Z,57.50
2019-04-22T20:26:50.078Z,57.30
2019-04-22T20:29:24.394Z,57.70
2019-04-22T20:31:50.290Z,57.60
2019-04-22T20:34:21.217Z,57.80
2019-04-22T20:36:57.028Z,58.00
2019-04-22T20:39:10.949Z,58.10
2019-04-22T20:41:41.036Z,58.60
2019-04-22T20:44:22.542Z,58.50
2019-04-22T20:46:51.319Z,59.20
2019-04-22T20:49:19.990Z,59.20
2019-04-22T20:51:59.047Z,59.20
2019-04-22T20:54:22.783Z,59.40
2019-04-22T20:56:49.313Z,59.60
2019-04-22T20:59:25.715Z,59.90
2019-04-22T21:01:49.733Z,59.90
2019-04-22T21:04:11.511Z,60.10
2019-04-22T21:06:54.336Z,59.90
2019-04-22T21:09:32.267Z,60.00
2019-04-22T21:11:51.948Z,60.60
2019-04-22T21:14:24.071Z,60.20
2019-04-22T21:16:56.374Z,60.80
2019-04-22T21:19:35.219Z,60.90
2019-04-22T21:21:59.525Z,61.60
2019-04-22T21:24:23.773Z,62.20
2019-04-22T21:26:56.867Z,62.50
2019-04-22T21:29:26.791Z,63.50
2019-04-22T21:32:05.763Z,63.70
2019-04-22T21:34:23.208Z,64.20
2019-04-22T21:37:12.086Z,64.70
2019-04-22T21:39:27.403Z,65.50
2019-04-22T21:41:58.738Z,66.90
2019-04-22T21:44:31.789Z,67.80
2019-04-22T21:47:13.078Z,67.70
2019-04-22T21:49:35.881Z,68.40
2019-04-22T21:52:07.994Z,69.30
2019-04-22T21:54:45.714Z,69.50
2019-04-22T21:59:34.294Z,71.70
2019-04-22T22:02:11.804Z,72.50
2019-04-22T22:04:36.589Z,72.80
2019-04-22T22:06:58.879Z,73.50
2019-04-22T22:09:45.968Z,73.30
2019-04-22T22:12:08.481Z,74.10
2019-04-22T22:14:42.575Z,74.20
2019-04-22T22:17:14.077Z,74.90
2019-04-22T22:19:45.477Z,74.30
2019-04-22T22:22:35.074Z,75.00
2019-04-22T22:24:49.806Z,74.60
2019-04-22T22:27:21.769Z,74.90
2019-04-22T22:30:05.141Z,74.90
2019-04-22T22:32:26.113Z,74.50
2019-04-22T22:34:50.832Z,74.10
2019-04-22T22:37:12.132Z,74.20
2019-04-22T22:39:41.765Z,74.80
2019-04-22T22:42:01.790Z,75.10
2019-04-22T22:44:38.022Z,75.30
2019-04-22T22:47:20.979Z,75.80
2019-04-22T22:49:55.016Z,76.00
2019-04-22T22:52:45.060Z,76.20
2019-04-22T22:54:54.230Z,76.40
2019-04-22T22:57:28.860Z,76.60
2019-04-22T22:59:57.487Z,76.80
2019-04-22T23:02:22.376Z,77.00
2019-04-22T23:04:59.479Z,76.90
2019-04-22T23:07:28.792Z,77.30
2019-04-22T23:09:53.756Z,77.20
2019-04-22T23:12:34.995Z,77.80
2019-04-22T23:14:54.451Z,77.60
2019-04-22T23:17:16.144Z,78.70
2019-04-22T23:19:46.012Z,79.70
2019-04-22T23:22:20.787Z,80.00
2019-04-22T23:24:59.821Z,80.30
2019-04-22T23:27:26.179Z,80.90
2019-04-22T23:29:57.219Z,80.80
2019-04-22T23:32:31.931Z,81.20
2019-04-22T23:35:15.275Z,81.20
2019-04-22T23:37:47.901Z,82.30
2019-04-22T23:40:24.428Z,82.10
2019-04-22T23:42:52.933Z,82.70
2019-04-22T23:45:21.079Z,84.10
2019-04-22T23:47:42.419Z,85.30
2019-04-22T23:50:24.427Z,85.50
2019-04-22T23:52:53.060Z,85.90
2019-04-22T23:55:25.970Z,87.60
2019-04-22T23:57:56.765Z,88.40
